sensor_id;sensor_type;location;lat;lon;timestamp;pressure;altitude;pressure_sealevel;temperature;humidity
45071;BME280;30836;48.906;9.140;2022-07-09T00:00:40;997.63;;;22.27;40.74
45071;BME280;30836;48.906;9.140;2022-07-09T00:01:40;997.63;;;22.25;40.68
45071;BME280;30836;48.906;9.140;2022-07-09T00:02:41;997.61;;;22.23;40.84
45071;BME280;30836;48.906;9.140;2022-07-09T00:03:41;997.59;;;22.22;40.83
45071;BME280;30836;48.906;9.140;2022-07-09T00:04:42;997.61;;;22.19;40.94
45071;BME280;30836;48.906;9.140;2022-07-09T00:05:42;997.61;;;22.17;40.95
45071;BME280;30836;48.906;9.140;2022-07-09T00:06:43;997.59;;;22.16;40.95
45071;BME280;30836;48.906;9.140;2022-07-09T00:07:43;997.61;;;22.16;40.92
45071;BME280;30836;48.906;9.140;2022-07-09T00:08:44;997.59;;;22.15;41.06
45071;BME280;30836;48.906;9.140;2022-07-09T00:09:44;997.61;;;22.14;41.06
45071;BME280;30836;48.906;9.140;2022-07-09T00:10:45;997.59;;;22.12;41.04
45071;BME280;30836;48.906;9.140;2022-07-09T00:11:45;997.59;;;22.11;40.95
45071;BME280;30836;48.906;9.140;2022-07-09T00:12:46;997.59;;;22.12;40.94
45071;BME280;30836;48.906;9.140;2022-07-09T00:13:46;997.57;;;22.11;41.00
45071;BME280;30836;48.906;9.140;2022-07-09T00:14:47;997.59;;;22.09;40.98
45071;BME280;30836;48.906;9.140;2022-07-09T00:15:48;997.59;;;22.09;40.95
45071;BME280;30836;48.906;9.140;2022-07-09T00:16:48;997.57;;;22.09;40.95
45071;BME280;30836;48.906;9.140;2022-07-09T00:17:49;997.59;;;22.09;40.96
45071;BME280;30836;48.906;9.140;2022-07-09T00:18:49;997.59;;;22.07;41.03
45071;BME280;30836;48.906;9.140;2022-07-09T00:19:50;997.59;;;22.04;41.17
45071;BME280;30836;48.906;9.140;2022-07-09T00:20:50;997.59;;;21.99;41.15
45071;BME280;30836;48.906;9.140;2022-07-09T00:21:50;997.57;;;21.96;41.38
45071;BME280;30836;48.906;9.140;2022-07-09T00:22:51;997.57;;;21.92;41.33
45071;BME280;30836;48.906;9.140;2022-07-09T00:23:51;997.49;;;21.85;41.60
45071;BME280;30836;48.906;9.140;2022-07-09T00:24:52;997.57;;;21.71;41.92
45071;BME280;30836;48.906;9.140;2022-07-09T00:25:52;997.49;;;21.54;42.32
45071;BME280;30836;48.906;9.140;2022-07-09T00:26:53;997.49;;;21.38;42.62
45071;BME280;30836;48.906;9.140;2022-07-09T00:27:53;997.47;;;21.24;42.81
45071;BME280;30836;48.906;9.140;2022-07-09T00:28:54;997.47;;;21.14;43.01
45071;BME280;30836;48.906;9.140;2022-07-09T00:29:54;997.49;;;21.05;43.19
45071;BME280;30836;48.906;9.140;2022-07-09T00:30:55;997.49;;;20.98;43.33
45071;BME280;30836;48.906;9.140;2022-07-09T00:31:55;997.47;;;20.93;43.46
45071;BME280;30836;48.906;9.140;2022-07-09T00:32:55;997.49;;;20.87;43.51
45071;BME280;30836;48.906;9.140;2022-07-09T00:33:56;997.47;;;20.83;43.74
45071;BME280;30836;48.906;9.140;2022-07-09T00:34:56;997.49;;;20.78;43.94
45071;BME280;30836;48.906;9.140;2022-07-09T00:35:57;997.47;;;20.73;44.00
45071;BME280;30836;48.906;9.140;2022-07-09T00:36:57;997.47;;;20.69;44.00
45071;BME280;30836;48.906;9.140;2022-07-09T00:37:58;997.47;;;20.65;43.97
45071;BME280;30836;48.906;9.140;2022-07-09T00:38:58;997.45;;;20.63;43.98
45071;BME280;30836;48.906;9.140;2022-07-09T00:39:58;997.45;;;20.61;43.88
45071;BME280;30836;48.906;9.140;2022-07-09T00:40:59;997.41;;;20.60;43.81
45071;BME280;30836;48.906;9.140;2022-07-09T00:43:14;997.39;;;20.58;44.22
45071;BME280;30836;48.906;9.140;2022-07-09T00:44:14;997.39;;;20.56;44.29
45071;BME280;30836;48.906;9.140;2022-07-09T00:45:15;997.37;;;20.55;44.24
45071;BME280;30836;48.906;9.140;2022-07-09T00:46:16;997.35;;;20.55;44.60
45071;BME280;30836;48.906;9.140;2022-07-09T00:47:17;997.35;;;20.53;44.50
45071;BME280;30836;48.906;9.140;2022-07-09T00:48:18;997.33;;;20.50;44.54
45071;BME280;30836;48.906;9.140;2022-07-09T00:49:18;997.35;;;20.47;44.58
45071;BME280;30836;48.906;9.140;2022-07-09T00:50:19;997.31;;;20.44;44.61
45071;BME280;30836;48.906;9.140;2022-07-09T00:51:19;997.31;;;20.42;44.65
45071;BME280;30836;48.906;9.140;2022-07-09T00:52:20;997.31;;;20.41;44.56
45071;BME280;30836;48.906;9.140;2022-07-09T00:53:21;997.29;;;20.40;44.63
45071;BME280;30836;48.906;9.140;2022-07-09T00:54:24;997.29;;;20.39;44.53
45071;BME280;30836;48.906;9.140;2022-07-09T00:55:25;997.27;;;20.38;44.57
45071;BME280;30836;48.906;9.140;2022-07-09T00:56:27;997.29;;;20.36;44.68
45071;BME280;30836;48.906;9.140;2022-07-09T00:57:30;997.27;;;20.33;45.00
45071;BME280;30836;48.906;9.140;2022-07-09T00:58:31;997.27;;;20.29;44.98
45071;BME280;30836;48.906;9.140;2022-07-09T00:59:34;997.29;;;20.25;45.02
45071;BME280;30836;48.906;9.140;2022-07-09T01:00:36;997.27;;;20.22;45.02
45071;BME280;30836;48.906;9.140;2022-07-09T01:01:36;997.27;;;20.22;44.98
45071;BME280;30836;48.906;9.140;2022-07-09T01:02:37;997.25;;;20.20;45.05
45071;BME280;30836;48.906;9.140;2022-07-09T01:03:37;997.23;;;20.16;45.20
45071;BME280;30836;48.906;9.140;2022-07-09T01:04:37;997.23;;;20.12;45.19
45071;BME280;30836;48.906;9.140;2022-07-09T01:05:38;997.21;;;20.08;45.34
45071;BME280;30836;48.906;9.140;2022-07-09T01:06:38;997.19;;;20.04;45.46
45071;BME280;30836;48.906;9.140;2022-07-09T01:07:39;997.19;;;20.00;45.51
45071;BME280;30836;48.906;9.140;2022-07-09T01:08:39;997.19;;;19.97;45.62
45071;BME280;30836;48.906;9.140;2022-07-09T01:09:40;997.19;;;19.94;45.68
45071;BME280;30836;48.906;9.140;2022-07-09T01:10:41;997.19;;;19.93;45.75
45071;BME280;30836;48.906;9.140;2022-07-09T01:11:41;997.21;;;19.91;45.70
45071;BME280;30836;48.906;9.140;2022-07-09T01:12:42;997.23;;;19.91;45.78
45071;BME280;30836;48.906;9.140;2022-07-09T01:13:43;997.17;;;19.90;45.88
45071;BME280;30836;48.906;9.140;2022-07-09T01:14:43;997.17;;;19.89;45.97
45071;BME280;30836;48.906;9.140;2022-07-09T01:15:44;997.15;;;19.90;45.92
45071;BME280;30836;48.906;9.140;2022-07-09T01:16:45;997.17;;;19.90;46.06
45071;BME280;30836;48.906;9.140;2022-07-09T01:17:46;997.17;;;19.89;46.10
45071;BME280;30836;48.906;9.140;2022-07-09T01:18:46;997.17;;;19.87;46.25
45071;BME280;30836;48.906;9.140;2022-07-09T01:19:47;997.15;;;19.84;46.24
45071;BME280;30836;48.906;9.140;2022-07-09T01:20:47;997.13;;;19.84;46.12
45071;BME280;30836;48.906;9.140;2022-07-09T01:21:48;997.13;;;19.84;46.16
45071;BME280;30836;48.906;9.140;2022-07-09T01:22:48;997.13;;;19.84;46.23
45071;BME280;30836;48.906;9.140;2022-07-09T01:23:49;997.13;;;19.85;46.20
45071;BME280;30836;48.906;9.140;2022-07-09T01:24:49;997.11;;;19.86;46.28
45071;BME280;30836;48.906;9.140;2022-07-09T01:25:52;997.11;;;19.86;46.22
45071;BME280;30836;48.906;9.140;2022-07-09T01:26:55;997.13;;;19.90;46.13
45071;BME280;30836;48.906;9.140;2022-07-09T01:27:56;997.13;;;19.98;45.71
45071;BME280;30836;48.906;9.140;2022-07-09T01:28:57;997.10;;;20.10;45.43
45071;BME280;30836;48.906;9.140;2022-07-09T01:29:57;997.10;;;20.22;45.19
45071;BME280;30836;48.906;9.140;2022-07-09T01:30:58;997.08;;;20.32;45.04
45071;BME280;30836;48.906;9.140;2022-07-09T01:31:58;997.06;;;20.40;44.96
45071;BME280;30836;48.906;9.140;2022-07-09T01:32:59;997.10;;;20.45;44.86
45071;BME280;30836;48.906;9.140;2022-07-09T01:34:00;997.04;;;20.43;45.11
45071;BME280;30836;48.906;9.140;2022-07-09T01:35:00;997.00;;;20.35;45.22
45071;BME280;30836;48.906;9.140;2022-07-09T01:36:00;997.04;;;20.27;45.38
45071;BME280;30836;48.906;9.140;2022-07-09T01:37:01;997.00;;;20.18;45.60
45071;BME280;30836;48.906;9.140;2022-07-09T01:38:01;997.02;;;20.11;45.69
45071;BME280;30836;48.906;9.140;2022-07-09T01:39:03;997.02;;;20.04;45.83
45071;BME280;30836;48.906;9.140;2022-07-09T01:40:04;997.02;;;19.98;46.03
45071;BME280;30836;48.906;9.140;2022-07-09T01:41:05;997.02;;;19.95;45.95
45071;BME280;30836;48.906;9.140;2022-07-09T01:42:05;996.98;;;19.98;45.61
45071;BME280;30836;48.906;9.140;2022-07-09T01:43:06;996.98;;;20.08;45.25
45071;BME280;30836;48.906;9.140;2022-07-09T01:44:06;996.96;;;20.18;45.02
45071;BME280;30836;48.906;9.140;2022-07-09T01:45:07;996.96;;;20.27;44.73
45071;BME280;30836;48.906;9.140;2022-07-09T01:46:07;996.94;;;20.36;44.59
45071;BME280;30836;48.906;9.140;2022-07-09T01:47:08;996.94;;;20.43;44.54
45071;BME280;30836;48.906;9.140;2022-07-09T01:48:08;996.94;;;20.49;44.37
45071;BME280;30836;48.906;9.140;2022-07-09T01:49:09;996.92;;;20.53;44.34
45071;BME280;30836;48.906;9.140;2022-07-09T01:50:09;996.90;;;20.56;44.44
45071;BME280;30836;48.906;9.140;2022-07-09T01:51:10;996.92;;;20.59;44.46
45071;BME280;30836;48.906;9.140;2022-07-09T01:52:12;996.92;;;20.61;44.33
45071;BME280;30836;48.906;9.140;2022-07-09T01:53:13;996.92;;;20.63;44.23
45071;BME280;30836;48.906;9.140;2022-07-09T01:54:13;996.92;;;20.65;44.17
45071;BME280;30836;48.906;9.140;2022-07-09T01:55:14;996.94;;;20.67;44.17
45071;BME280;30836;48.906;9.140;2022-07-09T01:56:14;996.94;;;20.64;44.46
45071;BME280;30836;48.906;9.140;2022-07-09T01:57:15;996.90;;;20.53;44.75
45071;BME280;30836;48.906;9.140;2022-07-09T01:58:15;996.88;;;20.38;45.10
45071;BME280;30836;48.906;9.140;2022-07-09T01:59:15;996.86;;;20.22;45.63
45071;BME280;30836;48.906;9.140;2022-07-09T02:00:16;996.86;;;20.09;45.74
45071;BME280;30836;48.906;9.140;2022-07-09T02:01:16;996.86;;;19.97;45.87
45071;BME280;30836;48.906;9.140;2022-07-09T02:02:17;996.86;;;19.88;46.01
45071;BME280;30836;48.906;9.140;2022-07-09T02:03:17;996.84;;;19.79;46.43
45071;BME280;30836;48.906;9.140;2022-07-09T02:04:18;996.86;;;19.70;46.70
45071;BME280;30836;48.906;9.140;2022-07-09T02:05:18;996.82;;;19.62;46.74
45071;BME280;30836;48.906;9.140;2022-07-09T02:06:19;996.84;;;19.56;46.78
45071;BME280;30836;48.906;9.140;2022-07-09T02:07:20;996.80;;;19.52;46.95
45071;BME280;30836;48.906;9.140;2022-07-09T02:08:20;996.82;;;19.47;46.97
45071;BME280;30836;48.906;9.140;2022-07-09T02:09:21;996.82;;;19.43;46.94
45071;BME280;30836;48.906;9.140;2022-07-09T02:10:21;996.82;;;19.40;46.94
45071;BME280;30836;48.906;9.140;2022-07-09T02:11:21;996.78;;;19.37;47.00
45071;BME280;30836;48.906;9.140;2022-07-09T02:12:22;996.80;;;19.34;46.96
45071;BME280;30836;48.906;9.140;2022-07-09T02:13:22;996.82;;;19.32;47.01
45071;BME280;30836;48.906;9.140;2022-07-09T02:14:23;996.82;;;19.29;47.02
45071;BME280;30836;48.906;9.140;2022-07-09T02:15:23;996.82;;;19.27;47.30
45071;BME280;30836;48.906;9.140;2022-07-09T02:16:24;996.84;;;19.25;47.44
45071;BME280;30836;48.906;9.140;2022-07-09T02:17:24;996.80;;;19.23;47.53
45071;BME280;30836;48.906;9.140;2022-07-09T02:18:25;996.80;;;19.21;47.68
45071;BME280;30836;48.906;9.140;2022-07-09T02:19:25;996.80;;;19.19;47.78
45071;BME280;30836;48.906;9.140;2022-07-09T02:20:25;996.82;;;19.17;47.80
45071;BME280;30836;48.906;9.140;2022-07-09T02:21:26;996.80;;;19.16;47.69
45071;BME280;30836;48.906;9.140;2022-07-09T02:22:26;996.80;;;19.14;47.63
45071;BME280;30836;48.906;9.140;2022-07-09T02:23:27;996.80;;;19.12;47.69
45071;BME280;30836;48.906;9.140;2022-07-09T02:24:27;996.80;;;19.10;47.89
45071;BME280;30836;48.906;9.140;2022-07-09T02:25:28;996.76;;;19.08;47.91
45071;BME280;30836;48.906;9.140;2022-07-09T02:26:28;996.74;;;19.06;47.71
45071;BME280;30836;48.906;9.140;2022-07-09T02:27:29;996.72;;;19.05;47.76
45071;BME280;30836;48.906;9.140;2022-07-09T02:28:29;996.72;;;19.04;48.12
45071;BME280;30836;48.906;9.140;2022-07-09T02:29:30;996.72;;;19.03;48.03
45071;BME280;30836;48.906;9.140;2022-07-09T02:30:30;996.74;;;19.02;48.06
45071;BME280;30836;48.906;9.140;2022-07-09T02:31:31;996.72;;;19.01;48.13
45071;BME280;30836;48.906;9.140;2022-07-09T02:32:31;996.74;;;19.00;48.23
45071;BME280;30836;48.906;9.140;2022-07-09T02:33:32;996.76;;;18.99;48.35
45071;BME280;30836;48.906;9.140;2022-07-09T02:34:32;996.78;;;18.98;48.34
45071;BME280;30836;48.906;9.140;2022-07-09T02:35:32;996.76;;;18.97;48.33
45071;BME280;30836;48.906;9.140;2022-07-09T02:36:33;996.78;;;18.96;48.37
45071;BME280;30836;48.906;9.140;2022-07-09T02:37:33;996.76;;;18.95;48.44
45071;BME280;30836;48.906;9.140;2022-07-09T02:38:34;996.76;;;18.93;48.42
45071;BME280;30836;48.906;9.140;2022-07-09T02:39:34;996.74;;;18.93;48.63
45071;BME280;30836;48.906;9.140;2022-07-09T02:40:35;996.74;;;18.93;48.56
45071;BME280;30836;48.906;9.140;2022-07-09T02:41:35;996.76;;;18.92;48.60
45071;BME280;30836;48.906;9.140;2022-07-09T02:42:35;996.76;;;18.92;48.58
45071;BME280;30836;48.906;9.140;2022-07-09T02:43:36;996.76;;;18.91;48.72
45071;BME280;30836;48.906;9.140;2022-07-09T02:44:36;996.78;;;18.91;48.70
45071;BME280;30836;48.906;9.140;2022-07-09T02:45:37;996.78;;;18.91;48.59
45071;BME280;30836;48.906;9.140;2022-07-09T02:46:37;996.80;;;18.90;48.43
45071;BME280;30836;48.906;9.140;2022-07-09T02:47:38;996.80;;;18.89;48.42
45071;BME280;30836;48.906;9.140;2022-07-09T02:48:38;996.80;;;18.87;48.48
45071;BME280;30836;48.906;9.140;2022-07-09T02:49:38;996.80;;;18.86;48.43
45071;BME280;30836;48.906;9.140;2022-07-09T02:50:39;996.80;;;18.84;48.43
45071;BME280;30836;48.906;9.140;2022-07-09T02:51:39;996.80;;;18.82;48.43
45071;BME280;30836;48.906;9.140;2022-07-09T02:52:40;996.80;;;18.81;48.32
45071;BME280;30836;48.906;9.140;2022-07-09T02:53:41;996.80;;;18.80;48.39
45071;BME280;30836;48.906;9.140;2022-07-09T02:54:41;996.78;;;18.77;48.40
45071;BME280;30836;48.906;9.140;2022-07-09T02:55:42;996.78;;;18.75;48.39
45071;BME280;30836;48.906;9.140;2022-07-09T02:56:42;996.78;;;18.74;48.37
45071;BME280;30836;48.906;9.140;2022-07-09T02:57:42;996.80;;;18.72;48.45
45071;BME280;30836;48.906;9.140;2022-07-09T02:58:43;996.80;;;18.70;48.38
45071;BME280;30836;48.906;9.140;2022-07-09T02:59:43;996.76;;;18.68;48.33
45071;BME280;30836;48.906;9.140;2022-07-09T03:00:44;996.78;;;18.66;48.37
45071;BME280;30836;48.906;9.140;2022-07-09T03:01:44;996.80;;;18.64;48.42
45071;BME280;30836;48.906;9.140;2022-07-09T03:02:45;996.82;;;18.63;48.50
45071;BME280;30836;48.906;9.140;2022-07-09T03:03:45;996.80;;;18.60;48.58
45071;BME280;30836;48.906;9.140;2022-07-09T03:04:46;996.80;;;18.58;48.51
45071;BME280;30836;48.906;9.140;2022-07-09T03:05:46;996.80;;;18.57;48.48
45071;BME280;30836;48.906;9.140;2022-07-09T03:06:47;996.80;;;18.57;48.46
45071;BME280;30836;48.906;9.140;2022-07-09T03:07:47;996.80;;;18.58;48.50
45071;BME280;30836;48.906;9.140;2022-07-09T03:08:48;996.82;;;18.57;48.59
45071;BME280;30836;48.906;9.140;2022-07-09T03:09:48;996.84;;;18.57;48.52
45071;BME280;30836;48.906;9.140;2022-07-09T03:10:49;996.84;;;18.58;48.41
45071;BME280;30836;48.906;9.140;2022-07-09T03:11:49;996.82;;;18.58;48.35
45071;BME280;30836;48.906;9.140;2022-07-09T03:12:50;996.84;;;18.57;48.34
45071;BME280;30836;48.906;9.140;2022-07-09T03:13:50;996.84;;;18.57;48.42
45071;BME280;30836;48.906;9.140;2022-07-09T03:14:51;996.86;;;18.57;48.46
45071;BME280;30836;48.906;9.140;2022-07-09T03:15:51;996.88;;;18.56;48.48
45071;BME280;30836;48.906;9.140;2022-07-09T03:16:52;996.88;;;18.56;48.44
45071;BME280;30836;48.906;9.140;2022-07-09T03:17:52;996.86;;;18.56;48.37
45071;BME280;30836;48.906;9.140;2022-07-09T03:18:52;996.84;;;18.57;48.20
45071;BME280;30836;48.906;9.140;2022-07-09T03:19:53;996.86;;;18.58;48.26
45071;BME280;30836;48.906;9.140;2022-07-09T03:20:53;996.88;;;18.60;48.13
45071;BME280;30836;48.906;9.140;2022-07-09T03:21:54;996.88;;;18.60;47.97
45071;BME280;30836;48.906;9.140;2022-07-09T03:22:54;996.88;;;18.60;47.98
45071;BME280;30836;48.906;9.140;2022-07-09T03:23:55;996.90;;;18.60;48.14
45071;BME280;30836;48.906;9.140;2022-07-09T03:24:55;996.90;;;18.60;48.29
45071;BME280;30836;48.906;9.140;2022-07-09T03:25:56;996.90;;;18.61;48.38
45071;BME280;30836;48.906;9.140;2022-07-09T03:26:56;996.92;;;18.62;48.46
45071;BME280;30836;48.906;9.140;2022-07-09T03:27:57;996.92;;;18.62;48.51
45071;BME280;30836;48.906;9.140;2022-07-09T03:28:57;996.92;;;18.62;48.40
45071;BME280;30836;48.906;9.140;2022-07-09T03:29:58;996.92;;;18.62;48.31
45071;BME280;30836;48.906;9.140;2022-07-09T03:30:59;996.90;;;18.61;48.24
45071;BME280;30836;48.906;9.140;2022-07-09T03:31:59;996.92;;;18.63;48.00
45071;BME280;30836;48.906;9.140;2022-07-09T03:33:00;996.92;;;18.64;48.08
45071;BME280;30836;48.906;9.140;2022-07-09T03:34:01;996.90;;;18.64;48.31
45071;BME280;30836;48.906;9.140;2022-07-09T03:35:01;996.92;;;18.62;48.42
45071;BME280;30836;48.906;9.140;2022-07-09T03:36:02;996.92;;;18.60;48.45
45071;BME280;30836;48.906;9.140;2022-07-09T03:37:03;996.92;;;18.58;48.55
45071;BME280;30836;48.906;9.140;2022-07-09T03:38:04;996.96;;;18.57;48.51
45071;BME280;30836;48.906;9.140;2022-07-09T03:39:04;996.96;;;18.56;48.76
45071;BME280;30836;48.906;9.140;2022-07-09T03:40:05;996.98;;;18.55;48.78
45071;BME280;30836;48.906;9.140;2022-07-09T03:41:06;996.98;;;18.54;48.71
45071;BME280;30836;48.906;9.140;2022-07-09T03:42:06;996.98;;;18.54;48.98
45071;BME280;30836;48.906;9.140;2022-07-09T03:43:07;996.96;;;18.54;49.08
45071;BME280;30836;48.906;9.140;2022-07-09T03:44:07;996.96;;;18.56;48.94
45071;BME280;30836;48.906;9.140;2022-07-09T03:45:08;996.96;;;18.57;48.99
45071;BME280;30836;48.906;9.140;2022-07-09T03:46:08;996.98;;;18.58;49.17
45071;BME280;30836;48.906;9.140;2022-07-09T03:47:09;997.02;;;18.58;49.33
45071;BME280;30836;48.906;9.140;2022-07-09T03:48:09;997.00;;;18.58;49.34
45071;BME280;30836;48.906;9.140;2022-07-09T03:49:10;997.00;;;18.60;49.33
45071;BME280;30836;48.906;9.140;2022-07-09T03:50:10;996.98;;;18.62;49.36
45071;BME280;30836;48.906;9.140;2022-07-09T03:51:11;997.00;;;18.63;49.41
45071;BME280;30836;48.906;9.140;2022-07-09T03:52:11;996.98;;;18.62;49.77
45071;BME280;30836;48.906;9.140;2022-07-09T03:53:11;997.00;;;18.61;49.78
45071;BME280;30836;48.906;9.140;2022-07-09T03:54:12;997.00;;;18.63;49.68
45071;BME280;30836;48.906;9.140;2022-07-09T03:55:12;996.98;;;18.64;49.94
45071;BME280;30836;48.906;9.140;2022-07-09T03:56:13;996.98;;;18.65;50.01
45071;BME280;30836;48.906;9.140;2022-07-09T03:57:13;996.96;;;18.66;50.08
45071;BME280;30836;48.906;9.140;2022-07-09T03:58:14;996.98;;;18.65;50.08
45071;BME280;30836;48.906;9.140;2022-07-09T03:59:14;996.96;;;18.63;50.32
45071;BME280;30836;48.906;9.140;2022-07-09T04:00:15;996.98;;;18.60;50.37
45071;BME280;30836;48.906;9.140;2022-07-09T04:01:16;997.00;;;18.59;50.62
45071;BME280;30836;48.906;9.140;2022-07-09T04:02:16;996.98;;;18.58;50.75
45071;BME280;30836;48.906;9.140;2022-07-09T04:03:17;997.02;;;18.57;50.93
45071;BME280;30836;48.906;9.140;2022-07-09T04:04:17;997.04;;;18.56;50.83
45071;BME280;30836;48.906;9.140;2022-07-09T04:05:17;997.02;;;18.55;50.97
45071;BME280;30836;48.906;9.140;2022-07-09T04:06:18;997.00;;;18.54;51.14
45071;BME280;30836;48.906;9.140;2022-07-09T04:07:18;997.00;;;18.52;51.25
45071;BME280;30836;48.906;9.140;2022-07-09T04:08:19;997.02;;;18.51;51.24
45071;BME280;30836;48.906;9.140;2022-07-09T04:09:19;997.00;;;18.49;51.36
45071;BME280;30836;48.906;9.140;2022-07-09T04:10:20;997.02;;;18.47;51.39
45071;BME280;30836;48.906;9.140;2022-07-09T04:11:21;997.04;;;18.45;51.56
45071;BME280;30836;48.906;9.140;2022-07-09T04:12:21;997.04;;;18.44;51.76
45071;BME280;30836;48.906;9.140;2022-07-09T04:13:22;997.04;;;18.44;51.64
45071;BME280;30836;48.906;9.140;2022-07-09T04:14:22;997.04;;;18.45;51.58
45071;BME280;30836;48.906;9.140;2022-07-09T04:15:23;997.02;;;18.47;51.60
45071;BME280;30836;48.906;9.140;2022-07-09T04:16:23;997.04;;;18.48;51.68
45071;BME280;30836;48.906;9.140;2022-07-09T04:17:24;997.06;;;18.48;51.79
45071;BME280;30836;48.906;9.140;2022-07-09T04:18:24;997.06;;;18.48;51.71
45071;BME280;30836;48.906;9.140;2022-07-09T04:19:24;997.04;;;18.48;51.83
45071;BME280;30836;48.906;9.140;2022-07-09T04:20:25;997.06;;;18.48;51.78
45071;BME280;30836;48.906;9.140;2022-07-09T04:21:25;997.06;;;18.49;51.73
45071;BME280;30836;48.906;9.140;2022-07-09T04:22:26;997.06;;;18.49;51.68
45071;BME280;30836;48.906;9.140;2022-07-09T04:23:26;997.08;;;18.49;51.51
45071;BME280;30836;48.906;9.140;2022-07-09T04:24:27;997.10;;;18.48;51.37
45071;BME280;30836;48.906;9.140;2022-07-09T04:25:28;997.10;;;18.48;51.16
45071;BME280;30836;48.906;9.140;2022-07-09T04:26:28;997.08;;;18.49;51.04
45071;BME280;30836;48.906;9.140;2022-07-09T04:27:28;997.10;;;18.51;50.88
45071;BME280;30836;48.906;9.140;2022-07-09T04:28:29;997.11;;;18.55;50.73
45071;BME280;30836;48.906;9.140;2022-07-09T04:29:29;997.11;;;18.59;50.45
45071;BME280;30836;48.906;9.140;2022-07-09T04:30:30;997.11;;;18.61;50.29
45071;BME280;30836;48.906;9.140;2022-07-09T04:31:31;997.11;;;18.62;50.17
45071;BME280;30836;48.906;9.140;2022-07-09T04:32:31;997.10;;;18.63;50.15
45071;BME280;30836;48.906;9.140;2022-07-09T04:33:32;997.11;;;18.63;50.13
45071;BME280;30836;48.906;9.140;2022-07-09T04:34:33;997.11;;;18.64;50.10
45071;BME280;30836;48.906;9.140;2022-07-09T04:35:33;997.11;;;18.65;50.06
45071;BME280;30836;48.906;9.140;2022-07-09T04:36:34;997.13;;;18.67;50.04
45071;BME280;30836;48.906;9.140;2022-07-09T04:37:34;997.13;;;18.70;50.01
45071;BME280;30836;48.906;9.140;2022-07-09T04:38:34;997.13;;;18.72;49.93
45071;BME280;30836;48.906;9.140;2022-07-09T04:39:35;997.11;;;18.73;49.91
45071;BME280;30836;48.906;9.140;2022-07-09T04:40:35;997.13;;;18.72;50.07
45071;BME280;30836;48.906;9.140;2022-07-09T04:41:36;997.13;;;18.71;50.11
45071;BME280;30836;48.906;9.140;2022-07-09T04:42:36;997.11;;;18.70;50.15
45071;BME280;30836;48.906;9.140;2022-07-09T04:43:37;997.13;;;18.68;50.15
45071;BME280;30836;48.906;9.140;2022-07-09T04:44:37;997.13;;;18.68;50.11
45071;BME280;30836;48.906;9.140;2022-07-09T04:45:38;997.13;;;18.68;50.03
45071;BME280;30836;48.906;9.140;2022-07-09T04:46:38;997.11;;;18.68;49.98
45071;BME280;30836;48.906;9.140;2022-07-09T04:47:38;997.11;;;18.68;49.93
45071;BME280;30836;48.906;9.140;2022-07-09T04:48:39;997.11;;;18.70;49.95
45071;BME280;30836;48.906;9.140;2022-07-09T04:49:39;997.10;;;18.70;50.05
45071;BME280;30836;48.906;9.140;2022-07-09T04:50:40;997.10;;;18.71;50.03
45071;BME280;30836;48.906;9.140;2022-07-09T04:51:40;997.08;;;18.71;49.96
45071;BME280;30836;48.906;9.140;2022-07-09T04:52:41;997.08;;;18.71;49.98
45071;BME280;30836;48.906;9.140;2022-07-09T04:53:41;997.06;;;18.71;49.93
45071;BME280;30836;48.906;9.140;2022-07-09T04:54:42;997.08;;;18.72;49.86
45071;BME280;30836;48.906;9.140;2022-07-09T04:55:42;997.06;;;18.73;49.61
45071;BME280;30836;48.906;9.140;2022-07-09T04:56:43;997.08;;;18.73;49.67
45071;BME280;30836;48.906;9.140;2022-07-09T04:57:43;997.08;;;18.71;49.83
45071;BME280;30836;48.906;9.140;2022-07-09T04:58:44;997.06;;;18.68;49.71
45071;BME280;30836;48.906;9.140;2022-07-09T04:59:44;997.08;;;18.67;49.61
45071;BME280;30836;48.906;9.140;2022-07-09T05:00:45;997.10;;;18.68;49.60
45071;BME280;30836;48.906;9.140;2022-07-09T05:01:45;997.08;;;18.68;49.52
45071;BME280;30836;48.906;9.140;2022-07-09T05:02:46;997.08;;;18.70;49.56
45071;BME280;30836;48.906;9.140;2022-07-09T05:03:46;997.08;;;18.73;49.49
45071;BME280;30836;48.906;9.140;2022-07-09T05:04:47;997.06;;;18.75;49.41
45071;BME280;30836;48.906;9.140;2022-07-09T05:05:48;997.06;;;18.77;49.34
45071;BME280;30836;48.906;9.140;2022-07-09T05:06:48;997.06;;;18.79;49.34
45071;BME280;30836;48.906;9.140;2022-07-09T05:07:49;997.08;;;18.82;49.37
45071;BME280;30836;48.906;9.140;2022-07-09T05:08:49;997.10;;;18.83;49.35
45071;BME280;30836;48.906;9.140;2022-07-09T05:09:50;997.08;;;18.84;49.38
45071;BME280;30836;48.906;9.140;2022-07-09T05:10:50;997.08;;;18.86;49.32
45071;BME280;30836;48.906;9.140;2022-07-09T05:11:50;997.06;;;18.89;49.25
45071;BME280;30836;48.906;9.140;2022-07-09T05:12:51;997.08;;;18.93;49.15
45071;BME280;30836;48.906;9.140;2022-07-09T05:13:51;997.10;;;18.99;49.05
45071;BME280;30836;48.906;9.140;2022-07-09T05:14:52;997.10;;;19.05;48.96
45071;BME280;30836;48.906;9.140;2022-07-09T05:15:52;997.10;;;19.12;48.85
45071;BME280;30836;48.906;9.140;2022-07-09T05:16:53;997.08;;;19.20;48.74
45071;BME280;30836;48.906;9.140;2022-07-09T05:17:53;997.08;;;19.26;48.74
45071;BME280;30836;48.906;9.140;2022-07-09T05:18:54;997.06;;;19.30;48.76
45071;BME280;30836;48.906;9.140;2022-07-09T05:19:54;997.11;;;19.34;49.00
45071;BME280;30836;48.906;9.140;2022-07-09T05:20:54;997.10;;;19.37;48.96
45071;BME280;30836;48.906;9.140;2022-07-09T05:21:55;997.10;;;19.41;48.90
45071;BME280;30836;48.906;9.140;2022-07-09T05:22:55;997.06;;;19.45;48.94
45071;BME280;30836;48.906;9.140;2022-07-09T05:23:56;997.08;;;19.49;48.88
45071;BME280;30836;48.906;9.140;2022-07-09T05:24:56;997.08;;;19.55;49.01
45071;BME280;30836;48.906;9.140;2022-07-09T05:25:57;997.08;;;19.58;48.92
45071;BME280;30836;48.906;9.140;2022-07-09T05:26:57;997.10;;;19.62;48.88
45071;BME280;30836;48.906;9.140;2022-07-09T05:27:57;997.10;;;19.66;48.85
45071;BME280;30836;48.906;9.140;2022-07-09T05:28:58;997.10;;;19.69;48.76
45071;BME280;30836;48.906;9.140;2022-07-09T05:29:58;997.10;;;19.71;48.76
45071;BME280;30836;48.906;9.140;2022-07-09T05:30:59;997.11;;;19.75;48.67